createdAt,value
2019-03-16T00:00:06.984Z,9.31
2019-03-16T00:02:37.677Z,9.30
2019-03-16T00:05:08.927Z,9.31
2019-03-16T00:07:39.820Z,9.30
2019-03-16T00:10:10.598Z,9.30
2019-03-16T00:12:41.427Z,9.32
2019-03-16T00:15:12.300Z,9.30
2019-03-16T00:17:43.060Z,9.30
2019-03-16T00:20:13.873Z,9.34
2019-03-16T00:22:44.768Z,9.36
2019-03-16T00:25:15.601Z,9.35
2019-03-16T00:27:46.354Z,9.37
2019-03-16T00:30:17.141Z,9.36
2019-03-16T00:32:47.933Z,9.40
2019-03-16T00:35:18.700Z,9.40
2019-03-16T00:37:49.506Z,9.41
2019-03-16T00:40:20.292Z,9.42
2019-03-16T00:42:52.399Z,9.41
2019-03-16T00:45:24.236Z,9.41
2019-03-16T00:47:54.951Z,9.40
2019-03-16T00:50:25.790Z,9.40
2019-03-16T00:52:56.501Z,9.41
2019-03-16T00:55:27.189Z,9.41
2019-03-16T00:57:58.034Z,9.41
2019-03-16T01:00:31.354Z,9.38
2019-03-16T01:03:02.100Z,9.39
2019-03-16T01:05:32.831Z,9.39
2019-03-16T01:08:03.706Z,9.41
2019-03-16T01:10:34.601Z,9.41
2019-03-16T01:13:05.485Z,9.40
2019-03-16T01:15:37.013Z,9.40
2019-03-16T01:18:07.955Z,9.40
2019-03-16T01:20:38.717Z,9.35
2019-03-16T01:23:09.546Z,9.39
2019-03-16T01:25:40.349Z,9.35
2019-03-16T01:28:11.205Z,9.34
2019-03-16T01:30:42.060Z,9.36
2019-03-16T01:33:12.849Z,9.34
2019-03-16T01:35:43.567Z,9.32
2019-03-16T01:38:14.352Z,9.31
2019-03-16T01:40:45.280Z,9.33
2019-03-16T01:43:16.137Z,9.35
2019-03-16T01:45:46.861Z,9.33
2019-03-16T01:48:17.675Z,9.35
2019-03-16T01:50:48.450Z,9.30
2019-03-16T01:53:19.369Z,9.32
2019-03-16T01:55:50.323Z,9.33
2019-03-16T01:58:21.093Z,9.33
2019-03-16T02:00:51.952Z,9.34
2019-03-16T02:03:22.853Z,9.31
2019-03-16T02:05:53.708Z,9.30
2019-03-16T02:08:24.531Z,9.29
2019-03-16T02:10:55.403Z,9.32
2019-03-16T02:13:26.197Z,9.33
2019-03-16T02:16:09.906Z,9.31
2019-03-16T02:18:29.432Z,9.26
2019-03-16T02:21:00.424Z,9.31
2019-03-16T02:23:31.252Z,9.31
2019-03-16T02:26:02.072Z,9.27
2019-03-16T02:28:32.952Z,9.20
2019-03-16T02:31:03.738Z,9.27
2019-03-16T02:33:34.486Z,9.28
2019-03-16T02:36:05.313Z,9.29
2019-03-16T02:38:36.171Z,9.29
2019-03-16T02:41:06.880Z,9.26
2019-03-16T02:43:37.770Z,9.28
2019-03-16T02:46:08.661Z,9.29
2019-03-16T02:48:39.628Z,9.29
2019-03-16T02:51:10.455Z,9.30
2019-03-16T02:53:41.326Z,9.31
2019-03-16T02:56:12.177Z,9.29
2019-03-16T02:58:43.026Z,9.27
2019-03-16T03:01:13.824Z,9.28
2019-03-16T03:03:44.623Z,9.28
2019-03-16T03:06:15.555Z,9.27
2019-03-16T03:08:46.222Z,9.27
2019-03-16T03:11:17.025Z,9.27
2019-03-16T03:13:47.820Z,9.29
2019-03-16T03:16:19.836Z,9.27
2019-03-16T03:18:50.702Z,9.29
2019-03-16T03:21:21.507Z,9.31
2019-03-16T03:23:52.268Z,9.29
2019-03-16T03:26:23.127Z,9.26
2019-03-16T03:28:54.033Z,9.30
2019-03-16T03:31:24.865Z,9.27
2019-03-16T03:34:01.109Z,9.29
2019-03-16T03:36:28.264Z,9.30
2019-03-16T03:38:59.039Z,9.30
2019-03-16T03:41:29.985Z,9.27
2019-03-16T03:44:00.976Z,9.27
2019-03-16T03:46:32.492Z,9.29
2019-03-16T03:49:03.577Z,9.25
2019-03-16T03:51:34.396Z,9.16
2019-03-16T03:54:05.459Z,9.19
2019-03-16T03:56:36.293Z,9.16
2019-03-16T03:59:07.610Z,9.21
2019-03-16T04:01:38.369Z,9.18
2019-03-16T04:04:15.607Z,9.17
2019-03-16T04:06:41.754Z,9.15
2019-03-16T04:09:12.626Z,9.17
2019-03-16T04:11:43.484Z,9.16
2019-03-16T04:14:14.253Z,9.16
2019-03-16T04:16:45.168Z,9.10
2019-03-16T04:19:16.023Z,9.09
2019-03-16T04:21:46.948Z,9.14
2019-03-16T04:24:17.853Z,9.02
2019-03-16T04:26:48.681Z,9.10
2019-03-16T04:29:19.417Z,9.12
2019-03-16T04:31:50.218Z,9.07
2019-03-16T04:34:28.966Z,9.06
2019-03-16T04:36:57.787Z,9.01
2019-03-16T04:39:28.583Z,9.04
2019-03-16T04:41:59.378Z,9.07
2019-03-16T04:44:30.215Z,9.06
2019-03-16T04:47:01.281Z,9.05
2019-03-16T04:49:32.285Z,9.00
2019-03-16T04:52:03.196Z,9.02
2019-03-16T04:54:34.036Z,9.01
2019-03-16T04:57:04.919Z,9.06
2019-03-16T04:59:36.685Z,9.09
2019-03-16T05:02:07.492Z,9.06
2019-03-16T05:04:42.591Z,9.05
2019-03-16T05:07:10.727Z,9.08
2019-03-16T05:09:41.548Z,9.13
2019-03-16T05:12:12.453Z,9.11
2019-03-16T05:14:43.290Z,9.11
2019-03-16T05:17:14.045Z,9.14
2019-03-16T05:19:44.865Z,9.10
2019-03-16T05:22:15.570Z,9.13
2019-03-16T05:24:46.308Z,9.16
2019-03-16T05:27:17.059Z,9.17
2019-03-16T05:29:47.760Z,9.17
2019-03-16T05:32:18.483Z,9.19
2019-03-16T05:34:56.314Z,9.13
2019-03-16T05:37:21.827Z,9.21
2019-03-16T05:39:52.662Z,9.24
2019-03-16T05:42:23.556Z,9.26
2019-03-16T05:44:54.361Z,9.23
2019-03-16T05:47:25.164Z,9.25
2019-03-16T05:49:56.179Z,9.29
2019-03-16T05:52:27.156Z,9.30
2019-03-16T05:54:58.086Z,9.30
2019-03-16T05:57:28.923Z,9.26
2019-03-16T05:59:59.769Z,9.29
2019-03-16T06:02:30.665Z,9.30
2019-03-16T06:05:10.572Z,9.31
2019-03-16T06:07:34.280Z,9.39
2019-03-16T06:10:05.653Z,9.36
2019-03-16T06:12:36.400Z,9.37
2019-03-16T06:15:07.491Z,9.41
2019-03-16T06:17:38.359Z,9.43
2019-03-16T06:20:10.097Z,9.46
2019-03-16T06:22:40.935Z,9.51
2019-03-16T06:25:11.995Z,9.52
2019-03-16T06:27:43.684Z,9.50
2019-03-16T06:30:14.536Z,9.52
2019-03-16T06:32:46.172Z,9.61
2019-03-16T06:35:24.318Z,9.61
2019-03-16T06:37:50.080Z,9.64
2019-03-16T06:40:21.441Z,9.70
2019-03-16T06:42:52.310Z,9.74
2019-03-16T06:45:23.245Z,9.78
2019-03-16T06:54:12.461Z,9.84
2019-03-16T06:56:43.387Z,9.92
2019-03-16T06:59:14.343Z,9.94
2019-03-16T07:01:45.252Z,9.96
2019-03-16T07:04:16.134Z,10.02
2019-03-16T07:06:46.982Z,10.06
2019-03-16T07:09:17.761Z,10.10
2019-03-16T07:11:48.448Z,10.13
2019-03-16T07:14:19.433Z,10.16
2019-03-16T07:17:01.588Z,10.19
2019-03-16T07:19:22.615Z,10.18
2019-03-16T07:21:53.435Z,10.20
2019-03-16T07:24:24.295Z,10.24
2019-03-16T07:26:55.117Z,10.32
2019-03-16T07:29:25.873Z,10.41
2019-03-16T07:31:56.738Z,10.52
2019-03-16T07:34:27.554Z,10.58
2019-03-16T07:36:58.359Z,10.57
2019-03-16T07:39:32.081Z,10.64
2019-03-16T07:42:02.867Z,10.75
2019-03-16T07:44:33.699Z,10.77
2019-03-16T07:47:04.537Z,10.79
2019-03-16T07:49:38.546Z,10.89
2019-03-16T07:52:07.989Z,10.88
2019-03-16T07:54:38.793Z,10.89
2019-03-16T07:57:14.257Z,10.96
2019-03-16T08:05:18.645Z,11.14
2019-03-16T08:07:44.997Z,11.19
2019-03-16T08:10:15.309Z,11.10
2019-03-16T08:12:45.753Z,11.24
2019-03-16T08:15:16.104Z,11.35
2019-03-16T08:17:46.446Z,11.44
2019-03-16T08:20:16.904Z,11.53
2019-03-16T08:22:47.329Z,11.66
2019-03-16T08:25:17.869Z,11.84
2019-03-16T08:27:54.055Z,11.87
2019-03-16T08:30:23.518Z,11.94
2019-03-16T08:32:52.721Z,11.94
2019-03-16T08:35:23.140Z,12.02
2019-03-16T08:37:53.568Z,12.14
2019-03-16T08:40:23.942Z,12.34
2019-03-16T08:42:54.415Z,12.42
2019-03-16T08:45:24.885Z,12.66
2019-03-16T08:47:55.381Z,12.84
2019-03-16T08:50:25.986Z,12.90
2019-03-16T08:52:56.445Z,13.22
2019-03-16T08:55:26.850Z,13.42
2019-03-16T08:58:06.146Z,13.26
2019-03-16T09:00:29.660Z,13.17
2019-03-16T09:03:00.002Z,13.49
2019-03-16T09:05:30.360Z,14.22
2019-03-16T09:08:00.834Z,14.37
2019-03-16T09:10:31.347Z,14.47
2019-03-16T09:13:01.832Z,14.27
2019-03-16T09:15:32.320Z,14.26
2019-03-16T09:18:02.808Z,14.00
2019-03-16T09:20:33.307Z,13.90
2019-03-16T09:23:03.781Z,13.71
2019-03-16T09:25:34.244Z,13.57
2019-03-16T09:28:04.650Z,13.34
2019-03-16T09:30:35.092Z,13.20
2019-03-16T09:33:05.556Z,13.10
2019-03-16T09:35:35.957Z,12.87
2019-03-16T09:38:06.302Z,12.71
2019-03-16T09:40:36.782Z,12.62
2019-03-16T09:43:07.183Z,12.66
2019-03-16T09:45:37.633Z,12.57
2019-03-16T09:48:08.008Z,12.56
2019-03-16T09:50:38.455Z,12.59
2019-03-16T09:53:08.794Z,12.56
2019-03-16T09:55:39.116Z,12.61
2019-03-16T09:58:09.623Z,12.61
2019-03-16T10:00:40.081Z,12.70
2019-03-16T10:03:10.463Z,12.73
2019-03-16T10:05:40.904Z,12.75
2019-03-16T10:08:11.266Z,12.75
2019-03-16T10:10:41.570Z,12.75
2019-03-16T10:13:11.998Z,12.75
2019-03-16T10:15:42.433Z,12.65
2019-03-16T10:18:12.800Z,12.61
2019-03-16T10:20:43.160Z,12.62
2019-03-16T10:23:13.609Z,12.59
2019-03-16T10:25:44.079Z,12.51
2019-03-16T10:28:14.400Z,12.45
2019-03-16T10:30:44.726Z,12.46
2019-03-16T10:33:15.158Z,12.51
2019-03-16T10:35:45.596Z,12.55
2019-03-16T10:38:15.997Z,12.58
2019-03-16T10:40:46.537Z,12.62
2019-03-16T10:43:16.992Z,12.65
2019-03-16T10:45:47.431Z,12.65
2019-03-16T10:48:17.890Z,12.74
2019-03-16T10:50:48.378Z,12.79
2019-03-16T10:53:18.840Z,12.94
2019-03-16T10:55:49.221Z,13.07
2019-03-16T10:58:19.648Z,13.11
2019-03-16T11:00:50.158Z,13.11
2019-03-16T11:03:20.464Z,13.17
2019-03-16T11:05:50.942Z,13.19
2019-03-16T11:08:21.337Z,13.24
2019-03-16T11:10:51.714Z,13.38
2019-03-16T11:13:23.418Z,13.48
2019-03-16T11:15:53.834Z,13.56
2019-03-16T11:18:25.873Z,13.84
2019-03-16T11:20:56.469Z,14.20
2019-03-16T11:23:26.838Z,14.35
2019-03-16T11:25:57.314Z,14.38
2019-03-16T11:28:27.649Z,14.57
2019-03-16T11:30:58.099Z,15.09
2019-03-16T11:33:28.480Z,15.39
2019-03-16T11:35:58.901Z,15.52
2019-03-16T11:38:29.437Z,15.56
2019-03-16T11:40:59.949Z,15.47
2019-03-16T11:43:30.314Z,15.64
2019-03-16T11:46:00.758Z,15.80
2019-03-16T11:48:31.199Z,15.58
2019-03-16T11:51:01.630Z,15.79
2019-03-16T11:53:31.969Z,16.54
2019-03-16T11:56:02.418Z,16.64
2019-03-16T11:58:32.890Z,16.29
2019-03-16T12:01:03.385Z,16.15
2019-03-16T12:03:33.836Z,16.37
2019-03-16T12:06:04.282Z,17.09
2019-03-16T12:08:34.637Z,18.39
2019-03-16T12:11:05.180Z,19.30
2019-03-16T12:13:35.569Z,19.17
2019-03-16T12:16:06.019Z,18.97
2019-03-16T12:18:36.502Z,18.22
2019-03-16T12:21:06.953Z,17.42
2019-03-16T12:23:37.445Z,16.86
2019-03-16T12:26:07.885Z,16.43
2019-03-16T12:28:38.222Z,16.22
2019-03-16T12:31:08.596Z,16.18
2019-03-16T12:33:38.952Z,16.00
2019-03-16T12:36:09.467Z,15.86
2019-03-16T12:38:39.942Z,15.66
2019-03-16T12:41:10.368Z,15.51
2019-03-16T12:43:40.698Z,15.09
2019-03-16T12:46:11.047Z,15.00
2019-03-16T12:48:41.376Z,14.79
2019-03-16T12:51:11.824Z,14.56
2019-03-16T12:53:42.319Z,14.67
2019-03-16T12:56:12.667Z,14.71
2019-03-16T12:58:43.296Z,14.85
2019-03-16T13:01:13.756Z,14.87
2019-03-16T13:03:44.272Z,14.91
2019-03-16T13:06:14.727Z,14.91
2019-03-16T13:08:45.198Z,15.15
2019-03-16T13:11:15.708Z,15.40
2019-03-16T13:13:46.028Z,15.61
2019-03-16T13:16:16.748Z,15.90
2019-03-16T13:18:47.189Z,16.11
2019-03-16T13:21:17.626Z,16.24
2019-03-16T13:23:47.998Z,16.44
2019-03-16T13:26:18.397Z,16.32
2019-03-16T13:28:48.713Z,16.21
2019-03-16T13:31:19.117Z,16.07
2019-03-16T13:33:49.554Z,16.06
2019-03-16T13:36:20.013Z,16.14
2019-03-16T13:38:50.399Z,16.28
2019-03-16T13:41:20.766Z,16.25
2019-03-16T13:43:51.221Z,16.24
2019-03-16T13:46:21.743Z,16.24
2019-03-16T13:48:52.203Z,16.15
2019-03-16T13:51:22.699Z,16.20
2019-03-16T13:53:53.161Z,16.11
2019-03-16T13:56:23.525Z,16.00
2019-03-16T13:58:54.239Z,15.92
2019-03-16T14:01:25.470Z,15.95
2019-03-16T14:03:55.887Z,16.03
2019-03-16T14:06:26.325Z,16.03
2019-03-16T14:08:57.091Z,15.96
2019-03-16T14:11:27.575Z,15.99
2019-03-16T14:13:58.044Z,15.83
2019-03-16T14:16:28.498Z,15.88
2019-03-16T14:18:59.241Z,15.96
2019-03-16T14:21:29.538Z,15.91
2019-03-16T14:24:00.023Z,15.81
2019-03-16T14:26:30.479Z,15.67
2019-03-16T14:29:00.822Z,15.65
2019-03-16T14:31:31.273Z,15.57
2019-03-16T14:34:01.624Z,15.48
2019-03-16T14:36:32.078Z,15.36
2019-03-16T14:39:02.700Z,15.20
2019-03-16T14:41:33.094Z,15.13
2019-03-16T14:44:03.926Z,15.10
2019-03-16T14:46:34.362Z,15.10
2019-03-16T14:49:04.866Z,15.16
2019-03-16T14:51:35.831Z,15.22
2019-03-16T14:54:06.304Z,15.32
2019-03-16T14:56:36.731Z,15.36
2019-03-16T14:59:07.176Z,15.31
2019-03-16T15:01:37.639Z,15.29
2019-03-16T15:04:08.007Z,15.31
2019-03-16T15:06:38.460Z,15.37
2019-03-16T15:09:09.530Z,15.47
2019-03-16T15:11:39.947Z,15.62
2019-03-16T15:14:21.074Z,15.72
2019-03-16T15:16:42.809Z,15.69
2019-03-16T15:19:13.660Z,15.75
2019-03-16T15:21:44.189Z,15.80
2019-03-16T15:24:14.534Z,15.70
2019-03-16T15:26:45.072Z,15.68
2019-03-16T15:29:15.586Z,15.61
2019-03-16T15:31:46.059Z,15.56
2019-03-16T15:34:16.600Z,15.50
2019-03-16T15:36:47.105Z,15.40
2019-03-16T15:39:19.919Z,15.28
2019-03-16T15:41:50.303Z,15.21
2019-03-16T15:44:22.266Z,15.17
2019-03-16T15:46:52.707Z,15.12
2019-03-16T15:49:23.155Z,15.04
2019-03-16T15:51:53.621Z,14.99
2019-03-16T15:54:23.949Z,14.93
2019-03-16T15:56:54.435Z,14.89
2019-03-16T15:59:24.965Z,14.83
2019-03-16T16:01:55.442Z,14.80
2019-03-16T16:04:25.750Z,14.76
2019-03-16T16:06:56.384Z,14.74
2019-03-16T16:09:26.794Z,14.72
2019-03-16T16:11:57.204Z,14.70
2019-03-16T16:14:27.665Z,14.66
2019-03-16T16:16:58.182Z,14.63
2019-03-16T16:19:28.487Z,14.59
2019-03-16T16:21:58.907Z,14.56
2019-03-16T16:24:29.337Z,14.53
2019-03-16T16:26:59.947Z,14.50
2019-03-16T16:29:30.285Z,14.48
2019-03-16T16:32:00.677Z,14.40
2019-03-16T16:34:31.240Z,14.37
2019-03-16T16:37:01.768Z,14.31
2019-03-16T16:39:32.188Z,14.25
2019-03-16T16:42:02.603Z,14.13
2019-03-16T16:44:33.057Z,14.06
2019-03-16T16:47:03.586Z,13.97
2019-03-16T16:49:34.103Z,13.90
2019-03-16T16:52:04.582Z,13.87
2019-03-16T16:54:37.605Z,13.76
2019-03-16T16:57:07.266Z,13.70
2019-03-16T16:59:37.564Z,13.64
2019-03-16T17:02:07.966Z,13.59
2019-03-16T17:04:38.419Z,13.53
2019-03-16T17:07:08.902Z,13.48
2019-03-16T17:09:39.339Z,13.43
2019-03-16T17:12:09.797Z,13.36
2019-03-16T17:14:40.176Z,13.32
2019-03-16T17:17:10.518Z,13.28
2019-03-16T17:19:40.940Z,13.21
2019-03-16T17:22:11.265Z,13.18
2019-03-16T17:24:41.907Z,13.11
2019-03-16T17:27:12.330Z,13.04
2019-03-16T17:29:42.628Z,12.98
2019-03-16T17:32:13.116Z,12.92
2019-03-16T17:34:43.567Z,12.85
2019-03-16T17:37:14.182Z,12.76
2019-03-16T17:39:44.952Z,12.69
2019-03-16T17:42:15.401Z,12.60
2019-03-16T17:44:45.837Z,12.55
2019-03-16T17:47:16.257Z,12.48
2019-03-16T17:49:46.675Z,12.40
2019-03-16T17:52:16.976Z,12.32
2019-03-16T17:54:47.316Z,12.23
2019-03-16T17:57:17.741Z,12.16
2019-03-16T17:59:48.191Z,12.10
2019-03-16T18:02:18.511Z,12.03
2019-03-16T18:04:48.959Z,11.98
2019-03-16T18:07:19.502Z,11.92
2019-03-16T18:09:49.895Z,11.86
2019-03-16T18:12:20.264Z,11.77
2019-03-16T18:14:50.758Z,11.70
2019-03-16T18:17:21.271Z,11.61
2019-03-16T18:19:51.605Z,11.54
2019-03-16T18:22:22.274Z,11.49
2019-03-16T18:24:52.638Z,11.43
2019-03-16T18:27:23.155Z,11.39
2019-03-16T18:29:53.612Z,11.35
2019-03-16T18:32:24.052Z,11.28
2019-03-16T18:34:54.455Z,11.19
2019-03-16T18:37:24.933Z,11.11
2019-03-16T18:39:55.304Z,11.08
2019-03-16T18:42:27.889Z,11.04
2019-03-16T18:44:57.868Z,10.98
2019-03-16T18:47:28.364Z,10.96
2019-03-16T18:49:58.730Z,10.97
2019-03-16T18:52:29.305Z,10.91
2019-03-16T18:54:59.852Z,10.90
2019-03-16T18:57:30.303Z,10.88
2019-03-16T19:00:00.714Z,10.88
2019-03-16T19:02:31.127Z,10.85
2019-03-16T19:05:01.470Z,10.84
2019-03-16T19:07:32.312Z,10.79
2019-03-16T19:10:02.820Z,10.74
2019-03-16T19:12:33.217Z,10.68
2019-03-16T19:15:03.666Z,10.64
2019-03-16T19:17:34.122Z,10.61
2019-03-16T19:20:05.146Z,10.60
2019-03-16T19:22:35.675Z,10.58
2019-03-16T19:25:07.174Z,10.55
2019-03-16T19:27:37.603Z,10.47
2019-03-16T19:30:10.202Z,10.42
2019-03-16T19:32:40.498Z,10.38
2019-03-16T19:35:11.091Z,10.36
2019-03-16T19:37:41.536Z,10.32
2019-03-16T19:40:12.569Z,10.29
2019-03-16T19:42:42.920Z,10.24
2019-03-16T19:45:13.548Z,10.16
2019-03-16T19:47:44.017Z,10.05
2019-03-16T19:50:14.525Z,10.00
2019-03-16T19:52:44.919Z,9.98
2019-03-16T19:55:15.860Z,9.94
2019-03-16T19:57:46.320Z,9.88
2019-03-16T20:00:16.680Z,9.81
2019-03-16T20:02:51.008Z,9.73
2019-03-16T20:05:19.561Z,9.66
2019-03-16T20:07:49.934Z,9.56
2019-03-16T20:10:20.609Z,9.51
2019-03-16T20:12:53.040Z,9.47
2019-03-16T20:15:24.116Z,9.44
2019-03-16T20:17:54.556Z,9.36
2019-03-16T20:20:24.929Z,9.38
2019-03-16T20:22:55.411Z,9.35
2019-03-16T20:25:25.836Z,9.38
2019-03-16T20:27:56.338Z,9.39
2019-03-16T20:30:27.359Z,9.36
2019-03-16T20:33:03.909Z,9.28
2019-03-16T20:35:29.978Z,9.25
2019-03-16T20:38:00.323Z,9.20
2019-03-16T20:40:30.611Z,9.12
2019-03-16T20:43:01.051Z,9.08
2019-03-16T20:45:31.784Z,9.05
2019-03-16T20:48:02.226Z,9.05
2019-03-16T20:50:32.668Z,9.03
2019-03-16T20:53:03.131Z,9.00
2019-03-16T20:55:34.479Z,8.95
2019-03-16T20:58:05.432Z,8.92
2019-03-16T21:00:35.983Z,8.85
2019-03-16T21:03:15.633Z,8.80
2019-03-16T21:05:38.498Z,8.77
2019-03-16T21:08:08.832Z,8.76
2019-03-16T21:10:39.204Z,8.72
2019-03-16T21:13:09.686Z,8.71
2019-03-16T21:15:40.067Z,8.69
2019-03-16T21:18:10.574Z,8.67
2019-03-16T21:20:40.895Z,8.61
2019-03-16T21:23:11.383Z,8.61
2019-03-16T21:25:41.855Z,8.65
2019-03-16T21:28:12.256Z,8.63
2019-03-16T21:30:42.699Z,8.60
2019-03-16T21:33:13.177Z,8.55
2019-03-16T21:35:43.606Z,8.49
2019-03-16T21:38:14.006Z,8.44
2019-03-16T21:40:44.461Z,8.39
2019-03-16T21:43:14.933Z,8.39
2019-03-16T21:45:45.315Z,8.38
2019-03-16T21:48:15.620Z,8.34
2019-03-16T21:50:46.090Z,8.29
2019-03-16T21:53:16.551Z,8.30
2019-03-16T21:55:47.026Z,8.29
2019-03-16T21:58:18.509Z,8.30
2019-03-16T22:00:48.840Z,8.30
2019-03-16T22:03:20.314Z,8.27
2019-03-16T22:05:50.756Z,8.24
2019-03-16T22:08:21.154Z,8.25
2019-03-16T22:10:51.579Z,8.21
2019-03-16T22:13:22.033Z,8.19
2019-03-16T22:15:54.320Z,8.19
2019-03-16T22:18:24.745Z,8.17
2019-03-16T22:20:55.224Z,8.13
2019-03-16T22:23:25.662Z,8.09
2019-03-16T22:25:56.188Z,8.09
2019-03-16T22:28:26.691Z,8.05
2019-03-16T22:30:57.134Z,7.99
2019-03-16T22:33:27.541Z,7.95
2019-03-16T22:35:58.095Z,7.92
2019-03-16T22:38:28.571Z,7.89
2019-03-16T22:40:58.996Z,7.95
2019-03-16T22:43:29.398Z,7.96
2019-03-16T22:45:59.874Z,7.95
2019-03-16T22:48:30.343Z,7.93
2019-03-16T22:51:00.734Z,7.91
2019-03-16T22:53:31.259Z,7.84
2019-03-16T22:56:01.813Z,7.81
2019-03-16T22:58:32.314Z,7.75
2019-03-16T23:01:04.401Z,7.70
2019-03-16T23:03:34.916Z,7.67
2019-03-16T23:06:05.375Z,7.65
2019-03-16T23:08:37.582Z,7.65
2019-03-16T23:11:08.033Z,7.64
2019-03-16T23:13:38.483Z,7.62
2019-03-16T23:16:08.950Z,7.62
2019-03-16T23:18:39.257Z,7.61
2019-03-16T23:21:09.722Z,7.63
2019-03-16T23:23:42.501Z,7.62
2019-03-16T23:26:12.219Z,7.59
2019-03-16T23:28:42.711Z,7.59
2019-03-16T23:31:13.164Z,7.60
2019-03-16T23:33:43.730Z,7.57
2019-03-16T23:36:14.123Z,7.62
2019-03-16T23:38:44.598Z,7.63
2019-03-16T23:41:15.089Z,7.69
2019-03-16T23:43:45.508Z,7.69
2019-03-16T23:46:15.846Z,7.72
2019-03-16T23:48:46.231Z,7.68
2019-03-16T23:51:17.013Z,7.68
2019-03-16T23:53:47.377Z,7.61
2019-03-16T23:56:17.866Z,7.57
2019-03-16T23:58:48.326Z,7.52
